sensor_id;sensor_type;location;lat;lon;timestamp;P1;durP1;ratioP1;P2;durP2;ratioP2
9264;SDS011;4669;49.594;10.958;2023-10-08T04:26:50;8.00;;;5.30;;
9264;SDS011;4669;49.594;10.958;2023-10-08T04:31:52;6.55;;;3.88;;
9264;SDS011;4669;49.594;10.958;2023-10-08T04:37:07;6.65;;;3.20;;
9264;SDS011;4669;49.594;10.958;2023-10-08T04:42:14;7.30;;;3.90;;
9264;SDS011;4669;49.594;10.958;2023-10-08T04:47:18;7.38;;;3.30;;
9264;SDS011;4669;49.594;10.958;2023-10-08T04:52:31;6.57;;;3.60;;
9264;SDS011;4669;49.594;10.958;2023-10-08T04:57:47;8.75;;;3.75;;
9264;SDS011;4669;49.594;10.958;2023-10-08T05:02:50;8.45;;;3.80;;
9264;SDS011;4669;49.594;10.958;2023-10-08T05:07:54;11.50;;;3.45;;
9264;SDS011;4669;49.594;10.958;2023-10-08T05:13:08;7.50;;;4.05;;
9264;SDS011;4669;49.594;10.958;2023-10-08T05:18:16;4.63;;;3.47;;
9264;SDS011;4669;49.594;10.958;2023-10-08T05:23:38;6.10;;;3.55;;
9264;SDS011;4669;49.594;10.958;2023-10-08T05:29:10;6.15;;;3.40;;
9264;SDS011;4669;49.594;10.958;2023-10-08T05:34:40;8.35;;;3.90;;
9264;SDS011;4669;49.594;10.958;2023-10-08T05:39:51;5.22;;;3.42;;
9264;SDS011;4669;49.594;10.958;2023-10-08T05:44:57;8.35;;;4.10;;
9264;SDS011;4669;49.594;10.958;2023-10-08T05:50:14;7.50;;;3.85;;
9264;SDS011;4669;49.594;10.958;2023-10-08T05:55:42;8.27;;;4.53;;
9264;SDS011;4669;49.594;10.958;2023-10-08T06:01:02;7.82;;;3.72;;
9264;SDS011;4669;49.594;10.958;2023-10-08T06:06:09;9.07;;;3.85;;
9264;SDS011;4669;49.594;10.958;2023-10-08T06:11:43;7.65;;;3.90;;
9264;SDS011;4669;49.594;10.958;2023-10-08T06:16:57;7.13;;;4.28;;
9264;SDS011;4669;49.594;10.958;2023-10-08T06:22:13;4.07;;;3.13;;
9264;SDS011;4669;49.594;10.958;2023-10-08T06:27:15;4.95;;;3.75;;
9264;SDS011;4669;49.594;10.958;2023-10-08T06:32:19;7.95;;;4.00;;
9264;SDS011;4669;49.594;10.958;2023-10-08T06:37:22;5.00;;;3.75;;
9264;SDS011;4669;49.594;10.958;2023-10-08T06:42:24;7.75;;;4.07;;
9264;SDS011;4669;49.594;10.958;2023-10-08T06:47:29;5.53;;;3.97;;
9264;SDS011;4669;49.594;10.958;2023-10-08T06:52:32;6.72;;;3.75;;
9264;SDS011;4669;49.594;10.958;2023-10-08T06:57:36;4.90;;;3.83;;
9264;SDS011;4669;49.594;10.958;2023-10-08T07:02:39;8.70;;;5.70;;
9264;SDS011;4669;49.594;10.958;2023-10-08T07:07:41;10.10;;;4.10;;
9264;SDS011;4669;49.594;10.958;2023-10-08T07:12:44;8.07;;;4.13;;
9264;SDS011;4669;49.594;10.958;2023-10-08T07:17:48;5.80;;;4.10;;
9264;SDS011;4669;49.594;10.958;2023-10-08T07:22:51;8.93;;;5.03;;
9264;SDS011;4669;49.594;10.958;2023-10-08T07:27:55;8.25;;;3.85;;
9264;SDS011;4669;49.594;10.958;2023-10-08T07:32:58;7.47;;;3.78;;
9264;SDS011;4669;49.594;10.958;2023-10-08T07:38:00;9.32;;;4.38;;
9264;SDS011;4669;49.594;10.958;2023-10-08T07:43:03;7.28;;;3.75;;
9264;SDS011;4669;49.594;10.958;2023-10-08T07:48:09;6.60;;;3.88;;
9264;SDS011;4669;49.594;10.958;2023-10-08T07:53:12;8.50;;;4.00;;
9264;SDS011;4669;49.594;10.958;2023-10-08T07:58:19;8.73;;;3.90;;
9264;SDS011;4669;49.594;10.958;2023-10-08T08:03:22;9.25;;;5.50;;
9264;SDS011;4669;49.594;10.958;2023-10-08T08:08:24;6.03;;;3.88;;
9264;SDS011;4669;49.594;10.958;2023-10-08T08:13:27;8.50;;;3.88;;
9264;SDS011;4669;49.594;10.958;2023-10-08T08:18:30;6.60;;;3.60;;
9264;SDS011;4669;49.594;10.958;2023-10-08T08:23:33;9.95;;;4.15;;
9264;SDS011;4669;49.594;10.958;2023-10-08T08:28:34;8.38;;;4.10;;
9264;SDS011;4669;49.594;10.958;2023-10-08T08:33:38;5.40;;;3.47;;
9264;SDS011;4669;49.594;10.958;2023-10-08T08:38:53;13.52;;;4.70;;
9264;SDS011;4669;49.594;10.958;2023-10-08T08:43:55;5.85;;;3.75;;
9264;SDS011;4669;49.594;10.958;2023-10-08T08:49:06;8.02;;;4.22;;
9264;SDS011;4669;49.594;10.958;2023-10-08T08:54:08;9.88;;;4.50;;
9264;SDS011;4669;49.594;10.958;2023-10-08T08:59:12;11.57;;;4.80;;
9264;SDS011;4669;49.594;10.958;2023-10-08T09:04:15;11.57;;;4.35;;
9264;SDS011;4669;49.594;10.958;2023-10-08T09:09:18;8.63;;;4.20;;
9264;SDS011;4669;49.594;10.958;2023-10-08T09:14:23;8.75;;;3.97;;
9264;SDS011;4669;49.594;10.958;2023-10-08T09:19:28;7.32;;;4.60;;
9264;SDS011;4669;49.594;10.958;2023-10-08T09:24:30;6.88;;;4.50;;
9264;SDS011;4669;49.594;10.958;2023-10-08T09:29:33;8.32;;;4.10;;
9264;SDS011;4669;49.594;10.958;2023-10-08T09:34:41;7.63;;;3.80;;
9264;SDS011;4669;49.594;10.958;2023-10-08T09:39:44;10.13;;;4.25;;
9264;SDS011;4669;49.594;10.958;2023-10-08T09:44:47;13.73;;;7.20;;
9264;SDS011;4669;49.594;10.958;2023-10-08T09:49:52;7.72;;;4.43;;
9264;SDS011;4669;49.594;10.958;2023-10-08T09:54:59;9.60;;;4.70;;
9264;SDS011;4669;49.594;10.958;2023-10-08T10:00:04;12.55;;;5.15;;
9264;SDS011;4669;49.594;10.958;2023-10-08T10:05:12;10.52;;;4.68;;
9264;SDS011;4669;49.594;10.958;2023-10-08T10:10:26;8.52;;;4.63;;
9264;SDS011;4669;49.594;10.958;2023-10-08T10:15:31;10.30;;;4.68;;
9264;SDS011;4669;49.594;10.958;2023-10-08T10:20:39;13.30;;;4.47;;
9264;SDS011;4669;49.594;10.958;2023-10-08T10:25:41;7.88;;;4.60;;
9264;SDS011;4669;49.594;10.958;2023-10-08T10:30:44;11.82;;;5.30;;
9264;SDS011;4669;49.594;10.958;2023-10-08T10:35:54;8.52;;;4.60;;
9264;SDS011;4669;49.594;10.958;2023-10-08T10:40:56;11.13;;;5.22;;
9264;SDS011;4669;49.594;10.958;2023-10-08T10:45:59;9.52;;;4.85;;
9264;SDS011;4669;49.594;10.958;2023-10-08T10:51:25;12.52;;;4.75;;
9264;SDS011;4669;49.594;10.958;2023-10-08T10:56:26;10.95;;;4.93;;
9264;SDS011;4669;49.594;10.958;2023-10-08T11:01:30;8.00;;;4.60;;
9264;SDS011;4669;49.594;10.958;2023-10-08T11:06:51;7.85;;;4.68;;
9264;SDS011;4669;49.594;10.958;2023-10-08T11:11:56;8.27;;;4.57;;
9264;SDS011;4669;49.594;10.958;2023-10-08T11:17:08;8.27;;;5.00;;
9264;SDS011;4669;49.594;10.958;2023-10-08T11:22:12;10.23;;;4.93;;
9264;SDS011;4669;49.594;10.958;2023-10-08T11:27:17;9.13;;;4.57;;
9264;SDS011;4669;49.594;10.958;2023-10-08T11:32:28;11.18;;;5.47;;
9264;SDS011;4669;49.594;10.958;2023-10-08T11:37:33;11.02;;;4.85;;
9264;SDS011;4669;49.594;10.958;2023-10-08T11:42:36;12.88;;;4.80;;
9264;SDS011;4669;49.594;10.958;2023-10-08T11:47:44;9.85;;;4.40;;
9264;SDS011;4669;49.594;10.958;2023-10-08T11:52:50;9.27;;;4.50;;
9264;SDS011;4669;49.594;10.958;2023-10-08T11:57:53;9.73;;;4.82;;
9264;SDS011;4669;49.594;10.958;2023-10-08T12:02:57;10.20;;;4.72;;
9264;SDS011;4669;49.594;10.958;2023-10-08T12:08:03;10.85;;;5.03;;
9264;SDS011;4669;49.594;10.958;2023-10-08T12:13:09;7.25;;;4.70;;
9264;SDS011;4669;49.594;10.958;2023-10-08T12:18:11;13.30;;;4.75;;
9264;SDS011;4669;49.594;10.958;2023-10-08T12:23:17;9.82;;;4.97;;
9264;SDS011;4669;49.594;10.958;2023-10-08T12:28:25;8.95;;;4.45;;
9264;SDS011;4669;49.594;10.958;2023-10-08T12:33:27;9.48;;;4.90;;
9264;SDS011;4669;49.594;10.958;2023-10-08T12:38:31;12.25;;;5.03;;
9264;SDS011;4669;49.594;10.958;2023-10-08T12:43:33;14.95;;;4.88;;
9264;SDS011;4669;49.594;10.958;2023-10-08T12:48:38;10.85;;;4.97;;
9264;SDS011;4669;49.594;10.958;2023-10-08T12:53:41;11.18;;;5.20;;
9264;SDS011;4669;49.594;10.958;2023-10-08T12:58:50;10.25;;;5.03;;
9264;SDS011;4669;49.594;10.958;2023-10-08T13:03:54;7.90;;;4.97;;
9264;SDS011;4669;49.594;10.958;2023-10-08T13:09:02;9.10;;;4.50;;
9264;SDS011;4669;49.594;10.958;2023-10-08T13:14:12;15.85;;;4.90;;
9264;SDS011;4669;49.594;10.958;2023-10-08T13:19:14;11.13;;;4.85;;
9264;SDS011;4669;49.594;10.958;2023-10-08T13:24:21;10.13;;;5.95;;
9264;SDS011;4669;49.594;10.958;2023-10-08T13:29:22;12.73;;;5.05;;
9264;SDS011;4669;49.594;10.958;2023-10-08T13:34:27;9.95;;;5.15;;
9264;SDS011;4669;49.594;10.958;2023-10-08T13:39:30;12.05;;;4.85;;
9264;SDS011;4669;49.594;10.958;2023-10-08T13:44:35;11.65;;;5.93;;
9264;SDS011;4669;49.594;10.958;2023-10-08T13:49:38;15.32;;;5.30;;
9264;SDS011;4669;49.594;10.958;2023-10-08T13:54:42;15.18;;;6.18;;
9264;SDS011;4669;49.594;10.958;2023-10-08T13:59:51;8.13;;;3.85;;
9264;SDS011;4669;49.594;10.958;2023-10-08T14:04:53;4.20;;;2.33;;
9264;SDS011;4669;49.594;10.958;2023-10-08T14:09:59;3.97;;;2.10;;
9264;SDS011;4669;49.594;10.958;2023-10-08T14:15:06;3.75;;;2.20;;
9264;SDS011;4669;49.594;10.958;2023-10-08T14:20:14;4.72;;;1.95;;
9264;SDS011;4669;49.594;10.958;2023-10-08T14:25:23;3.28;;;2.30;;
9264;SDS011;4669;49.594;10.958;2023-10-08T14:30:28;4.43;;;2.38;;
9264;SDS011;4669;49.594;10.958;2023-10-08T14:35:30;3.60;;;2.00;;
9264;SDS011;4669;49.594;10.958;2023-10-08T14:40:51;6.78;;;2.63;;
9264;SDS011;4669;49.594;10.958;2023-10-08T14:46:10;4.68;;;1.90;;
9264;SDS011;4669;49.594;10.958;2023-10-08T14:51:15;5.32;;;2.00;;
9264;SDS011;4669;49.594;10.958;2023-10-08T14:56:20;3.17;;;2.13;;
9264;SDS011;4669;49.594;10.958;2023-10-08T15:01:23;3.83;;;1.77;;
9264;SDS011;4669;49.594;10.958;2023-10-08T15:06:26;10.88;;;6.43;;
9264;SDS011;4669;49.594;10.958;2023-10-08T15:11:29;5.93;;;4.07;;
9264;SDS011;4669;49.594;10.958;2023-10-08T15:16:31;2.72;;;1.98;;
9264;SDS011;4669;49.594;10.958;2023-10-08T15:21:33;5.18;;;1.98;;
9264;SDS011;4669;49.594;10.958;2023-10-08T15:26:37;4.97;;;1.95;;
9264;SDS011;4669;49.594;10.958;2023-10-08T15:31:39;3.50;;;2.22;;
9264;SDS011;4669;49.594;10.958;2023-10-08T15:36:41;2.47;;;1.80;;
9264;SDS011;4669;49.594;10.958;2023-10-08T15:41:44;2.40;;;1.60;;
9264;SDS011;4669;49.594;10.958;2023-10-08T15:46:46;2.67;;;1.80;;
9264;SDS011;4669;49.594;10.958;2023-10-08T15:51:49;2.60;;;2.03;;
9264;SDS011;4669;49.594;10.958;2023-10-08T15:56:52;3.95;;;1.90;;
9264;SDS011;4669;49.594;10.958;2023-10-08T16:01:54;2.10;;;1.83;;
9264;SDS011;4669;49.594;10.958;2023-10-08T16:06:57;1.77;;;1.45;;
9264;SDS011;4669;49.594;10.958;2023-10-08T16:12:01;3.53;;;1.63;;
9264;SDS011;4669;49.594;10.958;2023-10-08T16:17:02;3.30;;;2.22;;
9264;SDS011;4669;49.594;10.958;2023-10-08T16:22:07;5.35;;;4.45;;
9264;SDS011;4669;49.594;10.958;2023-10-08T16:27:10;5.53;;;4.00;;
9264;SDS011;4669;49.594;10.958;2023-10-08T16:32:13;2.65;;;1.70;;
9264;SDS011;4669;49.594;10.958;2023-10-08T16:37:15;2.63;;;1.80;;
9264;SDS011;4669;49.594;10.958;2023-10-08T16:42:23;2.03;;;1.60;;
9264;SDS011;4669;49.594;10.958;2023-10-08T16:47:26;3.00;;;1.77;;
9264;SDS011;4669;49.594;10.958;2023-10-08T16:52:28;3.63;;;1.73;;
9264;SDS011;4669;49.594;10.958;2023-10-08T16:57:31;2.97;;;1.77;;
9264;SDS011;4669;49.594;10.958;2023-10-08T17:02:33;1.77;;;1.30;;
9264;SDS011;4669;49.594;10.958;2023-10-08T17:07:35;3.90;;;2.20;;
9264;SDS011;4669;49.594;10.958;2023-10-08T17:12:38;2.92;;;1.60;;
9264;SDS011;4669;49.594;10.958;2023-10-08T17:17:41;4.80;;;1.80;;
9264;SDS011;4669;49.594;10.958;2023-10-08T17:22:43;2.05;;;1.77;;
9264;SDS011;4669;49.594;10.958;2023-10-08T17:27:46;3.15;;;1.98;;
9264;SDS011;4669;49.594;10.958;2023-10-08T17:32:48;2.40;;;1.75;;
9264;SDS011;4669;49.594;10.958;2023-10-08T17:37:52;6.10;;;1.55;;
9264;SDS011;4669;49.594;10.958;2023-10-08T17:42:55;2.65;;;1.60;;
9264;SDS011;4669;49.594;10.958;2023-10-08T17:47:57;12.23;;;5.10;;
9264;SDS011;4669;49.594;10.958;2023-10-08T17:53:00;2.38;;;2.17;;
9264;SDS011;4669;49.594;10.958;2023-10-08T17:58:04;5.45;;;2.28;;
9264;SDS011;4669;49.594;10.958;2023-10-08T18:03:07;3.78;;;1.83;;
9264;SDS011;4669;49.594;10.958;2023-10-08T18:08:10;3.65;;;2.30;;
9264;SDS011;4669;49.594;10.958;2023-10-08T18:13:13;4.28;;;2.17;;
9264;SDS011;4669;49.594;10.958;2023-10-08T18:18:16;3.50;;;1.98;;
9264;SDS011;4669;49.594;10.958;2023-10-08T18:23:23;2.28;;;1.70;;
9264;SDS011;4669;49.594;10.958;2023-10-08T18:28:26;3.88;;;1.80;;
9264;SDS011;4669;49.594;10.958;2023-10-08T18:33:29;2.00;;;1.80;;
9264;SDS011;4669;49.594;10.958;2023-10-08T18:38:31;3.67;;;1.63;;
9264;SDS011;4669;49.594;10.958;2023-10-08T18:43:34;1.73;;;1.55;;
9264;SDS011;4669;49.594;10.958;2023-10-08T18:48:36;4.13;;;2.63;;
9264;SDS011;4669;49.594;10.958;2023-10-08T18:53:39;2.45;;;1.92;;
9264;SDS011;4669;49.594;10.958;2023-10-08T18:58:45;2.47;;;2.28;;
9264;SDS011;4669;49.594;10.958;2023-10-08T19:03:47;5.90;;;3.00;;
9264;SDS011;4669;49.594;10.958;2023-10-08T19:08:49;2.67;;;2.47;;
9264;SDS011;4669;49.594;10.958;2023-10-08T19:13:53;16.38;;;11.23;;
9264;SDS011;4669;49.594;10.958;2023-10-08T19:18:55;3.72;;;2.45;;
9264;SDS011;4669;49.594;10.958;2023-10-08T19:23:58;3.10;;;2.17;;
9264;SDS011;4669;49.594;10.958;2023-10-08T19:29:01;5.07;;;2.25;;
9264;SDS011;4669;49.594;10.958;2023-10-08T19:34:03;8.85;;;6.75;;
9264;SDS011;4669;49.594;10.958;2023-10-08T19:39:07;10.13;;;7.90;;
9264;SDS011;4669;49.594;10.958;2023-10-08T19:44:14;4.10;;;3.63;;
9264;SDS011;4669;49.594;10.958;2023-10-08T19:49:16;7.32;;;3.40;;
9264;SDS011;4669;49.594;10.958;2023-10-08T19:54:19;3.10;;;2.70;;
9264;SDS011;4669;49.594;10.958;2023-10-08T19:59:23;4.00;;;2.88;;
9264;SDS011;4669;49.594;10.958;2023-10-08T20:04:26;4.35;;;3.20;;
9264;SDS011;4669;49.594;10.958;2023-10-08T20:09:28;4.30;;;3.10;;
9264;SDS011;4669;49.594;10.958;2023-10-08T20:14:31;5.28;;;4.65;;
9264;SDS011;4669;49.594;10.958;2023-10-08T20:19:33;7.05;;;4.78;;
9264;SDS011;4669;49.594;10.958;2023-10-08T20:24:35;4.72;;;4.05;;
9264;SDS011;4669;49.594;10.958;2023-10-08T20:29:40;4.38;;;3.55;;
9264;SDS011;4669;49.594;10.958;2023-10-08T20:34:41;5.47;;;3.55;;
9264;SDS011;4669;49.594;10.958;2023-10-08T20:39:43;6.95;;;3.90;;
9264;SDS011;4669;49.594;10.958;2023-10-08T20:44:46;8.82;;;5.00;;
9264;SDS011;4669;49.594;10.958;2023-10-08T20:49:48;5.65;;;3.67;;
9264;SDS011;4669;49.594;10.958;2023-10-08T20:54:51;5.57;;;3.50;;
9264;SDS011;4669;49.594;10.958;2023-10-08T20:59:54;4.10;;;3.30;;
9264;SDS011;4669;49.594;10.958;2023-10-08T21:04:56;3.97;;;3.58;;
9264;SDS011;4669;49.594;10.958;2023-10-08T21:09:58;5.30;;;3.63;;
9264;SDS011;4669;49.594;10.958;2023-10-08T21:15:02;4.68;;;3.55;;
9264;SDS011;4669;49.594;10.958;2023-10-08T21:20:05;4.53;;;3.38;;
9264;SDS011;4669;49.594;10.958;2023-10-08T21:25:10;4.55;;;3.60;;
9264;SDS011;4669;49.594;10.958;2023-10-08T21:30:14;3.90;;;3.50;;
9264;SDS011;4669;49.594;10.958;2023-10-08T21:35:19;5.47;;;3.80;;
9264;SDS011;4669;49.594;10.958;2023-10-08T21:40:21;5.53;;;4.20;;
9264;SDS011;4669;49.594;10.958;2023-10-08T21:45:26;7.72;;;4.15;;
9264;SDS011;4669;49.594;10.958;2023-10-08T21:50:28;4.38;;;3.95;;
9264;SDS011;4669;49.594;10.958;2023-10-08T21:55:31;6.22;;;3.40;;
